Latest Weather Observations for Rottnest Island

IDW60801

Issued at 1:32 pm WST Thursday 7 May 2015 (issued every 30 minutes, with the page automatically refreshed every 10 minutes)

About weather observations | Map of weather stations | Latest weather observations for WA | Other Formats
Station Details ID: 009193 Name: ROTTNEST ISLAND Lat: -32.01 Lon: 115.50 Height: 43.1 m
Data from the previous 72 hours. | See also: Recent months at Rottnest Island
Date/Time
WST
Temp
°C
App
Temp
°C
Dew
Point
Rel
Hum
%
Delta-T
°C
Wind Press
QNH
hPa
Press
MSL
hPa
Rain
since 9 am
mm
Dir
 
Spd
km/h
Gust
km/h
Spd
kts
Gust
kts
07/01:30pm 20.2 17.1 7.2 43 6.6 SSE 13 17 7 9 1028.0 1027.9 0.0
07/01:00pm 20.0 16.8 6.7 42 6.7 SSE 13 15 7 8 1028.3 1028.3 0.0
07/12:30pm 20.7 18.2 8.4 45 6.4 SE 11 20 6 11 1028.7 1028.7 0.0
07/12:00pm 20.5 17.8 5.7 38 7.3 E 9 13 5 7 1029.3 1029.3 0.0
07/11:30am 20.4 17.0 9.0 48 6.0 ENE 17 20 9 11 1029.7 1029.7 0.0
07/11:00am 19.8 16.3 10.2 54 5.1 NE 19 22 10 12 1030.1 1030.1 0.0
07/10:30am 18.7 15.2 10.8 60 4.3 NE 20 24 11 13 1030.2 1030.2 0.0
07/10:00am 18.1 14.2 10.7 62 4.0 ENE 22 26 12 14 1030.2 1030.2 0.0
07/09:30am 17.7 14.2 10.8 64 3.7 ENE 20 26 11 14 1030.2 1030.2 0.0
07/09:00am 17.3 14.1 11.1 67 3.3 NE 19 26 10 14 1030.3 1030.3 0.0
07/08:30am 16.2 12.3 10.7 70 2.9 NE 22 32 12 17 1030.0 1030.0 0.0
07/08:00am 15.8 12.3 11.0 73 2.5 NE 20 28 11 15 1030.0 1030.0 0.0
07/07:30am 14.5 10.9 9.9 74 2.4 ENE 19 22 10 12 1029.9 1029.9 0.0
07/07:00am 14.2 10.9 9.6 74 2.4 ENE 17 20 9 11 1029.7 1029.7 0.0
07/06:30am 13.6 10.3 9.5 76 2.1 ENE 17 19 9 10 1029.6 1029.6 0.0
07/06:00am 13.7 10.4 9.6 76 2.1 E 17 17 9 9 1029.5 1029.5 0.0
07/05:30am 14.3 11.0 9.5 73 2.5 E 17 24 9 13 1029.4 1029.4 0.0
07/05:00am 14.6 12.5 9.8 73 2.5 ESE 11 15 6 8 1029.2 1029.2 0.0
07/04:30am 14.7 11.8 9.5 71 2.7 ESE 15 17 8 9 1029.2 1029.2 0.0
07/04:00am 15.3 12.3 9.4 68 3.0 ESE 15 19 8 10 1029.0 1029.0 0.0
07/03:30am 15.2 12.1 8.9 66 3.2 ESE 15 17 8 9 1028.9 1028.9 0.0
07/03:00am 15.1 12.4 9.0 67 3.1 ESE 13 17 7 9 1028.9 1028.9 0.0
07/02:30am 15.2 12.2 9.3 68 3.0 E 15 19 8 10 1028.9 1028.9 0.0
07/02:00am 15.3 12.3 9.4 68 3.0 E 15 19 8 10 1028.8 1028.8 0.0
07/01:30am 15.6 12.7 9.7 68 3.1 E 15 19 8 10 1028.7 1028.7 0.0
07/01:00am 15.6 13.1 9.7 68 3.0 ESE 13 17 7 9 1028.8 1028.8 0.0
07/12:30am 15.8 13.3 9.7 67 3.2 E 13 17 7 9 1028.8 1028.8 0.0
07/12:00am 15.9 13.3 9.3 65 3.4 E 13 17 7 9 1028.9 1028.9 0.0
 
Date/Time
WST
Temp
°C
App
Temp
°C
Dew
Point
Rel
Hum
%
Delta-T
°C
Wind Press
QNH
hPa
Press
MSL
hPa
Rain
since 9 am
mm
Dir
 
Spd
km/h
Gust
km/h
Spd
kts
Gust
kts
06/11:30pm 16.1 13.5 9.5 65 3.4 E 13 17 7 9 1029.0 1029.0 0.0
06/11:00pm 16.3 13.9 10.2 67 3.2 ESE 13 17 7 9 1029.0 1029.0 0.0
06/10:30pm 16.7 14.0 10.3 66 3.4 ESE 15 20 8 11 1029.0 1029.0 0.0
06/10:00pm 17.2 14.0 11.2 68 3.2 SE 19 32 10 17 1028.8 1028.8 0.0
06/09:30pm 17.6 13.2 11.8 69 3.2 SE 26 33 14 18 1028.5 1028.5 0.0
06/09:00pm 17.8 13.1 12.0 69 3.2 SSE 28 37 15 20 1028.3 1028.3 0.0
06/08:30pm 18.0 13.1 11.3 65 3.6 SSE 28 39 15 21 1028.3 1028.3 0.0
06/08:00pm 18.1 12.9 11.7 66 3.5 SSE 30 35 16 19 1028.0 1027.9 0.0
06/07:30pm 18.1 13.3 11.7 66 3.5 SSE 28 33 15 18 1027.9 1027.8 0.0
06/07:00pm 18.0 13.5 11.3 65 3.6 S 26 32 14 17 1027.6 1027.5 0.0
06/06:30pm 17.9 13.7 11.0 64 3.7 S 24 30 13 16 1027.4 1027.3 0.0
06/06:00pm 17.7 13.8 10.8 64 3.7 S 22 28 12 15 1027.3 1027.2 0.0
06/05:30pm 17.7 14.2 10.1 61 4.0 S 19 24 10 13 1027.2 1027.1 0.0
06/05:00pm 18.0 14.3 9.6 58 4.4 S 19 24 10 13 1027.1 1027.0 0.0
06/04:30pm 18.3 15.0 9.6 57 4.6 S 17 20 9 11 1027.2 1027.1 0.0
06/04:00pm 18.4 14.6 9.2 55 4.8 S 19 22 10 12 1027.2 1027.1 0.0
06/03:30pm 18.6 15.1 8.8 53 5.1 S 17 22 9 12 1027.1 1027.0 0.0
06/03:00pm 18.7 15.5 8.4 51 5.3 S 15 20 8 11 1027.3 1027.2 0.0
06/02:30pm 18.6 15.4 8.3 51 5.3 S 15 20 8 11 1027.3 1027.2 0.0
06/02:00pm 18.1 15.2 8.1 52 5.1 S 13 17 7 9 1027.5 1027.4 0.0
06/01:30pm 18.2 15.4 8.5 53 5.0 SSE 13 19 7 10 1027.7 1027.6 0.0
06/01:00pm 17.7 14.8 8.0 53 4.9 SSE 13 17 7 9 1028.0 1027.9 0.0
06/12:30pm 17.6 14.4 8.5 55 4.7 SSE 15 20 8 11 1028.4 1028.4 0.0
06/12:00pm 17.4 14.0 9.1 58 4.3 SSE 17 20 9 11 1028.7 1028.7 0.0
06/11:30am 17.3 14.4 9.5 60 4.1 SSE 15 19 8 10 1029.1 1029.1 0.0
06/11:00am 16.9 13.9 9.3 61 3.9 SSE 15 19 8 10 1029.4 1029.4 0.0
06/10:30am 17.4 15.0 8.5 56 4.6 ESE 11 17 6 9 1029.5 1029.5 0.0
06/10:00am 17.5 15.7 9.4 59 4.2 E 9 17 5 9 1029.9 1029.9 0.0
06/09:30am 17.2 15.1 11.0 67 3.3 E 13 19 7 10 1030.0 1030.0 0.0
06/09:00am 17.1 15.4 10.0 63 3.7 E 9 13 5 7 1029.9 1029.9 0.0
06/08:30am 16.3 14.8 10.6 69 3.0 E 9 11 5 6 1029.8 1029.8 0.0
06/08:00am 15.4 13.9 10.6 73 2.5 E 9 11 5 6 1029.5 1029.5 0.0
06/07:30am 14.2 11.8 10.2 77 2.1 E 13 15 7 8 1029.2 1029.2 0.0
06/07:00am 13.6 10.8 10.0 79 1.8 E 15 19 8 10 1028.9 1028.9 0.0
06/06:30am 13.0 10.1 9.6 80 1.7 E 15 17 8 9 1028.6 1028.6 0.0
06/06:00am 13.2 10.3 9.5 78 1.9 E 15 17 8 9 1028.4 1028.4 0.0
06/05:30am 13.4 10.9 9.6 78 1.9 E 13 17 7 9 1028.3 1028.3 0.0
06/05:00am 13.8 11.3 9.8 77 2.0 E 13 19 7 10 1028.1 1028.0 0.0
06/04:30am 14.3 11.8 9.7 74 2.4 ESE 13 19 7 10 1027.8 1027.7 0.0
06/04:00am 14.3 11.0 9.7 74 2.4 ESE 17 22 9 12 1027.6 1027.5 0.0
06/03:30am 14.7 11.0 10.1 74 2.4 SE 20 30 11 16 1027.6 1027.5 0.0
06/03:00am 15.2 11.1 10.0 71 2.7 SE 22 30 12 16 1027.6 1027.5 0.0
06/02:30am 15.4 10.9 10.0 70 2.8 SE 24 33 13 18 1027.5 1027.4 0.0
06/02:00am 15.6 10.3 9.9 69 3.0 SE 28 39 15 21 1027.5 1027.4 0.0
06/01:30am 15.6 9.9 9.9 69 3.0 SE 30 37 16 20 1027.5 1027.4 0.0
06/01:00am 15.7 10.1 10.2 70 2.9 SE 30 37 16 20 1027.2 1027.1 0.0
06/12:30am 15.8 9.8 10.1 69 3.0 SE 32 39 17 21 1027.2 1027.1 0.0
06/12:00am 16.2 10.4 9.6 65 3.4 SE 30 37 16 20 1027.1 1027.0 0.0
 
Date/Time
WST
Temp
°C
App
Temp
°C
Dew
Point
Rel
Hum
%
Delta-T
°C
Wind Press
QNH
hPa
Press
MSL
hPa
Rain
since 9 am
mm
Dir
 
Spd
km/h
Gust
km/h
Spd
kts
Gust
kts
05/11:30pm 16.2 11.3 9.8 66 3.4 SE 26 33 14 18 1027.0 1026.9 0.0
05/11:00pm 16.4 11.2 10.3 67 3.2 SE 28 33 15 18 1027.1 1027.0 0.0
05/10:30pm 16.3 12.0 10.6 69 3.0 SE 24 32 13 17 1027.2 1027.1 0.0
05/10:00pm 16.8 12.3 10.2 65 3.5 SE 24 32 13 17 1027.0 1026.9 0.0
05/09:30pm 16.8 12.8 10.4 66 3.4 SE 22 32 12 17 1027.0 1026.9 0.0
05/09:00pm 16.8 11.8 9.7 63 3.7 SSE 26 35 14 19 1026.9 1026.8 0.0
05/08:30pm 16.9 11.9 9.6 62 3.8 SSE 26 33 14 18 1026.6 1026.5 0.0
05/08:00pm 17.0 11.7 9.7 62 3.8 SSE 28 35 15 19 1026.5 1026.4 0.0
05/07:30pm 17.0 11.3 9.9 63 3.7 SSE 30 37 16 20 1026.3 1026.2 0.0
05/07:00pm 16.7 12.1 9.6 63 3.7 SSE 24 32 13 17 1026.3 1026.2 0.0
05/06:30pm 16.6 11.9 9.1 61 3.9 SSE 24 32 13 17 1026.0 1025.9 0.0
05/06:00pm 16.5 11.6 8.5 59 4.1 S 24 32 13 17 1025.9 1025.8 0.0
05/05:30pm 16.4 11.5 8.4 59 4.1 SSE 24 33 13 18 1025.9 1025.8 0.0
05/05:00pm 16.9 11.6 8.3 57 4.4 S 26 32 14 17 1025.9 1025.8 0.0
05/04:30pm 16.8 11.6 8.8 59 4.1 S 26 32 14 17 1026.0 1025.9 0.0
05/04:00pm 17.2 11.4 9.6 61 4.0 S 30 35 16 19 1026.0 1025.9 0.0
05/03:30pm 17.6 12.5 9.2 58 4.4 S 26 32 14 17 1026.1 1026.0 0.0
05/03:00pm 18.1 13.6 10.0 59 4.3 SSE 24 32 13 17 1026.1 1026.0 0.0
05/02:30pm 17.5 12.2 8.4 55 4.7 S 26 33 14 18 1026.1 1026.0 0.0
05/02:00pm 17.5 11.8 8.4 55 4.6 SSE 28 35 15 19 1026.2 1026.1 0.0
05/01:30pm 17.7 13.2 8.6 55 4.7 SSE 22 30 12 16 1026.4 1026.3 0.0
05/01:00pm 17.7 12.7 8.0 53 4.9 SSE 24 32 13 17 1026.9 1026.8 0.0
05/12:30pm 17.4 13.4 8.3 55 4.7 SE 19 26 10 14 1027.6 1027.5 0.0
05/12:00pm 16.7 12.2 8.4 58 4.2 SE 22 28 12 15 1028.3 1028.3 0.0
05/11:30am 16.8 11.9 8.5 58 4.3 SSE 24 30 13 16 1028.5 1028.5 0.0
05/11:00am 16.8 12.7 8.8 59 4.1 SE 20 26 11 14 1028.8 1028.8 0.0
05/10:30am 16.0 12.4 8.2 60 4.0 SE 17 24 9 13 1028.9 1028.9 0.0
05/10:00am 15.8 12.1 7.8 59 4.0 ESE 17 26 9 14 1029.0 1029.0 0.0
05/09:30am 15.6 12.1 8.6 63 3.6 ESE 17 28 9 15 1029.0 1029.0 0.0
05/09:00am 15.0 10.8 7.5 61 3.7 ESE 19 28 10 15 1028.9 1028.9 0.6
05/08:30am 14.6 10.9 8.1 65 3.3 ESE 17 24 9 13 1028.7 1028.7 0.6
05/08:00am 14.2 11.3 8.2 67 3.0 ESE 13 20 7 11 1028.5 1028.5 0.6
05/07:30am 13.5 10.2 7.9 69 2.8 E 15 20 8 11 1028.1 1028.0 0.6
05/07:00am 13.5 9.8 7.9 69 2.8 ESE 17 20 9 11 1028.0 1027.9 0.6
05/06:30am 13.8 10.1 8.0 68 2.9 ESE 17 24 9 13 1027.8 1027.7 0.6
05/06:00am 13.8 10.1 8.0 68 2.9 ESE 17 24 9 13 1027.7 1027.6 0.6
05/05:30am 14.1 10.3 7.6 65 3.2 SE 17 28 9 15 1027.5 1027.4 0.6
05/05:00am 14.1 10.8 7.9 66 3.1 ESE 15 24 8 13 1027.7 1027.6 0.6
05/04:30am 13.9 10.6 7.9 67 3.0 ESE 15 20 8 11 1027.6 1027.5 0.6
05/04:00am 14.1 9.1 8.1 67 3.0 SE 24 32 13 17 1027.4 1027.3 0.6
05/03:30am 14.3 9.6 7.8 65 3.2 SE 22 32 12 17 1027.5 1027.4 0.6
05/03:00am 14.6 9.3 6.9 60 3.7 SE 24 35 13 19 1027.3 1027.2 0.6
05/02:30am 14.4 9.3 7.5 63 3.4 SE 24 32 13 17 1027.5 1027.4 0.6
05/02:00am 14.5 9.2 6.8 60 3.7 SE 24 37 13 20 1027.4 1027.3 0.6
05/01:30am 14.8 8.7 6.6 58 4.0 SE 28 37 15 20 1027.3 1027.2 0.6
05/01:00am 14.5 8.4 6.8 60 3.7 SE 28 39 15 21 1027.2 1027.1 0.6
05/12:30am 14.6 8.5 6.4 58 4.0 SE 28 35 15 19 1027.2 1027.1 0.6
05/12:00am 14.7 7.4 7.3 61 3.6 SE 35 43 19 23 1027.0 1026.9 0.6
 
Date/Time
WST
Temp
°C
App
Temp
°C
Dew
Point
Rel
Hum
%
Delta-T
°C
Wind Press
QNH
hPa
Press
MSL
hPa
Rain
since 9 am
mm
Dir
 
Spd
km/h
Gust
km/h
Spd
kts
Gust
kts
04/11:30pm 14.4 7.9 6.7 60 3.7 SE 30 43 16 23 1027.0 1026.9 0.6
04/11:00pm 14.6 8.2 6.9 60 3.7 SE 30 37 16 20 1027.2 1027.1 0.6
04/10:30pm 14.6 8.3 7.2 61 3.6 SE 30 41 16 22 1027.2 1027.1 0.6
04/10:00pm 14.6 8.2 6.9 60 3.7 SE 30 39 16 21 1027.0 1026.9 0.6
04/09:30pm 14.8 7.9 6.6 58 4.0 SSE 32 46 17 25 1026.9 1026.8 0.6
04/09:00pm 15.0 8.2 7.1 59 3.9 SE 32 44 17 24 1026.8 1026.7 0.6
04/08:33pm 15.6 8.7 6.6 55 4.4 SSE 32 52 17 28 1026.2 1026.1 0.6
04/08:30pm 15.6 8.8 6.9 56 4.3 SSE 32 41 17 22 1026.5 1026.4 0.6
04/08:00pm 15.9 8.0 6.3 53 4.6 S 37 56 20 30 1026.3 1026.2 0.6
04/07:56pm 16.0 8.4 5.9 51 4.9 SSE 35 56 19 30 1025.9 1025.8 0.6
04/07:30pm 15.9 7.6 6.1 52 4.8 SSE 39 52 21 28 1025.9 1025.8 0.6
04/07:00pm 15.9 7.6 6.3 53 4.6 S 39 52 21 28 1025.6 1025.5 0.6
04/06:30pm 15.7 7.6 7.0 56 4.3 S 39 46 21 25 1025.2 1025.1 0.6
04/06:00pm 15.8 7.3 5.1 49 5.1 S 39 48 21 26 1024.7 1024.6 0.6
04/05:30pm 15.8 6.8 6.5 54 4.5 S 43 57 23 31 1024.4 1024.3 0.6
04/05:00pm 15.9 7.5 5.8 51 4.8 S 39 48 21 26 1024.3 1024.2 0.6
04/04:30pm 16.2 7.5 6.1 51 4.9 SSW 41 50 22 27 1024.3 1024.2 0.6
04/04:00pm 16.1 7.8 6.3 52 4.8 S 39 48 21 26 1023.9 1023.8 0.6
04/03:30pm 15.9 8.5 6.6 54 4.6 S 35 46 19 25 1023.7 1023.6 0.6
04/03:00pm 16.1 8.0 7.1 55 4.4 S 39 50 21 27 1023.3 1023.2 0.6
04/02:30pm 16.6 8.6 7.5 55 4.6 S 39 54 21 29 1023.0 1022.9 0.6
04/02:00pm 14.8 9.4 9.4 70 2.8 SSE 28 37 15 20 1023.3 1023.2 0.6

Other Formats:

Comma delimited format used in spreadsheet applications
http://www.bom.gov.au/fwo/IDW60801/IDW60801.94602.axf

JavaScript Object Notation format (JSON) in row-major order
http://www.bom.gov.au/fwo/IDW60801/IDW60801.94602.json